sensor_id;sensor_type;location;lat;lon;timestamp;pressure;altitude;pressure_sealevel;temperature;humidity
46392;BME280;32098;49.448;7.904;2023-05-23T00:01:52;98073.66;;;15.91;72.58
46392;BME280;32098;49.448;7.904;2023-05-23T00:04:20;98078.47;;;15.94;72.26
46392;BME280;32098;49.448;7.904;2023-05-23T00:06:47;98080.09;;;15.90;72.35
46392;BME280;32098;49.448;7.904;2023-05-23T00:09:15;98077.91;;;15.82;72.05
46392;BME280;32098;49.448;7.904;2023-05-23T00:11:42;98077.16;;;15.91;71.78
46392;BME280;32098;49.448;7.904;2023-05-23T00:14:14;98079.53;;;15.73;72.68
46392;BME280;32098;49.448;7.904;2023-05-23T00:16:41;98076.31;;;15.76;72.65
46392;BME280;32098;49.448;7.904;2023-05-23T00:19:10;98074.16;;;15.78;72.89
46392;BME280;32098;49.448;7.904;2023-05-23T00:21:37;98078.47;;;15.79;73.46
46392;BME280;32098;49.448;7.904;2023-05-23T00:24:03;98078.94;;;15.55;73.94
46392;BME280;32098;49.448;7.904;2023-05-23T00:26:31;98078.69;;;15.57;74.59
46392;BME280;32098;49.448;7.904;2023-05-23T00:28:57;98076.44;;;15.44;74.13
46392;BME280;32098;49.448;7.904;2023-05-23T00:31:24;98069.69;;;15.41;75.27
46392;BME280;32098;49.448;7.904;2023-05-23T00:33:51;98068.94;;;15.46;74.35
46392;BME280;32098;49.448;7.904;2023-05-23T00:36:17;98088.06;;;15.49;74.95
46392;BME280;32098;49.448;7.904;2023-05-23T00:38:44;98078.94;;;15.50;74.92
46392;BME280;32098;49.448;7.904;2023-05-23T00:41:14;98076.38;;;15.29;74.80
46392;BME280;32098;49.448;7.904;2023-05-23T00:43:41;98073.22;;;15.42;74.06
46392;BME280;32098;49.448;7.904;2023-05-23T00:46:09;98083.44;;;15.40;73.99
46392;BME280;32098;49.448;7.904;2023-05-23T00:48:36;98029.78;;;15.03;74.20
46392;BME280;32098;49.448;7.904;2023-05-23T00:51:04;98073.47;;;15.35;75.67
46392;BME280;32098;49.448;7.904;2023-05-23T00:53:31;98072.34;;;15.26;75.78
46392;BME280;32098;49.448;7.904;2023-05-23T00:55:58;98071.72;;;15.09;76.33
46392;BME280;32098;49.448;7.904;2023-05-23T00:58:25;98078.75;;;15.10;75.87
46392;BME280;32098;49.448;7.904;2023-05-23T01:00:52;98083.44;;;14.83;76.85
46392;BME280;32098;49.448;7.904;2023-05-23T01:03:19;98091.88;;;14.60;77.61
46392;BME280;32098;49.448;7.904;2023-05-23T01:05:46;98082.09;;;14.49;78.65
46392;BME280;32098;49.448;7.904;2023-05-23T01:08:13;98079.53;;;14.64;78.46
46392;BME280;32098;49.448;7.904;2023-05-23T01:10:41;98096.41;;;14.54;78.63
46392;BME280;32098;49.448;7.904;2023-05-23T01:13:16;98098.09;;;14.60;79.40
46392;BME280;32098;49.448;7.904;2023-05-23T01:15:52;98092.75;;;14.65;80.14
46392;BME280;32098;49.448;7.904;2023-05-23T01:18:32;98099.75;;;14.71;79.20
46392;BME280;32098;49.448;7.904;2023-05-23T01:21:16;98097.44;;;14.85;78.49
46392;BME280;32098;49.448;7.904;2023-05-23T01:23:51;98100.94;;;14.85;78.45
46392;BME280;32098;49.448;7.904;2023-05-23T01:26:31;98095.34;;;14.97;78.04
46392;BME280;32098;49.448;7.904;2023-05-23T01:29:14;98097.78;;;14.99;77.99
46392;BME280;32098;49.448;7.904;2023-05-23T01:31:48;98103.97;;;14.99;77.81
46392;BME280;32098;49.448;7.904;2023-05-23T01:34:18;98101.28;;;15.04;77.47
46392;BME280;32098;49.448;7.904;2023-05-23T01:36:44;98104.53;;;15.01;77.97
46392;BME280;32098;49.448;7.904;2023-05-23T01:39:11;98107.31;;;14.74;79.34
46392;BME280;32098;49.448;7.904;2023-05-23T01:41:38;98096.69;;;14.53;79.70
46392;BME280;32098;49.448;7.904;2023-05-23T01:44:05;98111.22;;;14.57;79.59
46392;BME280;32098;49.448;7.904;2023-05-23T01:46:33;98109.06;;;14.59;79.64
46392;BME280;32098;49.448;7.904;2023-05-23T01:49:02;98107.16;;;14.54;80.19
46392;BME280;32098;49.448;7.904;2023-05-23T01:51:31;98113.81;;;14.52;81.04
46392;BME280;32098;49.448;7.904;2023-05-23T01:54:00;98108.47;;;14.52;81.49
46392;BME280;32098;49.448;7.904;2023-05-23T01:56:27;98107.59;;;14.46;82.17
46392;BME280;32098;49.448;7.904;2023-05-23T01:58:54;98111.84;;;14.37;82.70
46392;BME280;32098;49.448;7.904;2023-05-23T02:01:21;98114.47;;;14.32;83.32
46392;BME280;32098;49.448;7.904;2023-05-23T02:03:48;98101.31;;;14.30;83.38
46392;BME280;32098;49.448;7.904;2023-05-23T02:06:14;98059.84;;;14.21;82.90
46392;BME280;32098;49.448;7.904;2023-05-23T02:08:41;98110.97;;;14.58;82.91
46392;BME280;32098;49.448;7.904;2023-05-23T02:11:08;98105.41;;;14.70;82.19
46392;BME280;32098;49.448;7.904;2023-05-23T02:13:36;98101.72;;;14.81;81.50
46392;BME280;32098;49.448;7.904;2023-05-23T02:16:02;98118.44;;;14.88;81.11
46392;BME280;32098;49.448;7.904;2023-05-23T02:18:29;98106.03;;;14.87;80.90
46392;BME280;32098;49.448;7.904;2023-05-23T02:20:55;98124.38;;;14.95;81.00
46392;BME280;32098;49.448;7.904;2023-05-23T02:23:22;98120.69;;;15.06;80.36
46392;BME280;32098;49.448;7.904;2023-05-23T02:25:49;98118.75;;;15.02;79.90
46392;BME280;32098;49.448;7.904;2023-05-23T02:28:15;98113.31;;;14.91;80.11
46392;BME280;32098;49.448;7.904;2023-05-23T02:30:42;98102.69;;;14.65;80.50
46392;BME280;32098;49.448;7.904;2023-05-23T02:33:09;98137.06;;;14.63;81.36
46392;BME280;32098;49.448;7.904;2023-05-23T02:35:36;98130.69;;;14.42;82.19
46392;BME280;32098;49.448;7.904;2023-05-23T02:38:03;98129.38;;;14.45;82.61
46392;BME280;32098;49.448;7.904;2023-05-23T02:40:29;98134.09;;;14.33;83.01
46392;BME280;32098;49.448;7.904;2023-05-23T02:42:55;98126.69;;;14.45;83.04
46392;BME280;32098;49.448;7.904;2023-05-23T02:45:25;98100.34;;;14.47;81.85
46392;BME280;32098;49.448;7.904;2023-05-23T02:47:52;98135.53;;;14.77;80.88
46392;BME280;32098;49.448;7.904;2023-05-23T02:50:18;98133.75;;;14.87;80.03
46392;BME280;32098;49.448;7.904;2023-05-23T02:52:45;98148.06;;;14.98;79.66
46392;BME280;32098;49.448;7.904;2023-05-23T02:55:12;98147.81;;;15.00;79.37
46392;BME280;32098;49.448;7.904;2023-05-23T02:57:43;98147.88;;;15.10;79.17
46392;BME280;32098;49.448;7.904;2023-05-23T03:00:10;98135.22;;;15.10;78.78
46392;BME280;32098;49.448;7.904;2023-05-23T03:02:37;98132.09;;;15.23;78.52
46392;BME280;32098;49.448;7.904;2023-05-23T03:05:05;98129.94;;;15.25;78.42
46392;BME280;32098;49.448;7.904;2023-05-23T03:07:32;98131.59;;;15.36;77.81
46392;BME280;32098;49.448;7.904;2023-05-23T03:09:59;98134.25;;;15.31;77.47
46392;BME280;32098;49.448;7.904;2023-05-23T03:12:27;98133.97;;;15.28;77.24
46392;BME280;32098;49.448;7.904;2023-05-23T03:14:54;98143.13;;;15.32;76.93
46392;BME280;32098;49.448;7.904;2023-05-23T03:17:23;98134.84;;;15.38;76.56
46392;BME280;32098;49.448;7.904;2023-05-23T03:19:50;98147.75;;;15.41;76.33
46392;BME280;32098;49.448;7.904;2023-05-23T03:22:18;98150.41;;;15.36;76.29
46392;BME280;32098;49.448;7.904;2023-05-23T03:24:44;98132.88;;;15.24;76.20
46392;BME280;32098;49.448;7.904;2023-05-23T03:27:11;98156.09;;;15.40;75.90
46392;BME280;32098;49.448;7.904;2023-05-23T03:29:38;98143.34;;;15.20;75.81
46392;BME280;32098;49.448;7.904;2023-05-23T03:32:05;98155.50;;;15.28;75.69
46392;BME280;32098;49.448;7.904;2023-05-23T03:34:32;98149.34;;;15.32;75.08
46392;BME280;32098;49.448;7.904;2023-05-23T03:36:59;98149.81;;;15.24;75.73
46392;BME280;32098;49.448;7.904;2023-05-23T03:39:26;98142.81;;;15.18;76.01
46392;BME280;32098;49.448;7.904;2023-05-23T03:41:52;98151.91;;;15.12;76.25
46392;BME280;32098;49.448;7.904;2023-05-23T03:44:19;98161.63;;;15.13;76.28
46392;BME280;32098;49.448;7.904;2023-05-23T03:46:46;98165.41;;;15.17;75.46
46392;BME280;32098;49.448;7.904;2023-05-23T03:49:14;98149.22;;;15.12;74.63
46392;BME280;32098;49.448;7.904;2023-05-23T03:51:41;98160.25;;;15.11;74.42
46392;BME280;32098;49.448;7.904;2023-05-23T03:54:08;98157.59;;;15.16;74.36
46392;BME280;32098;49.448;7.904;2023-05-23T03:56:35;98162.66;;;15.12;74.75
46392;BME280;32098;49.448;7.904;2023-05-23T03:59:02;98158.94;;;15.13;74.58
46392;BME280;32098;49.448;7.904;2023-05-23T04:01:29;98159.88;;;14.97;74.72
46392;BME280;32098;49.448;7.904;2023-05-23T04:03:57;98159.31;;;14.90;74.72
46392;BME280;32098;49.448;7.904;2023-05-23T04:06:28;98152.91;;;14.96;74.58
46392;BME280;32098;49.448;7.904;2023-05-23T04:08:56;98161.78;;;15.02;74.72
46392;BME280;32098;49.448;7.904;2023-05-23T04:11:23;98157.22;;;15.02;74.35
46392;BME280;32098;49.448;7.904;2023-05-23T04:13:50;98166.63;;;15.00;74.10
46392;BME280;32098;49.448;7.904;2023-05-23T04:16:17;98168.19;;;14.90;74.30
46392;BME280;32098;49.448;7.904;2023-05-23T04:18:45;98165.19;;;14.87;75.01
46392;BME280;32098;49.448;7.904;2023-05-23T04:21:13;98170.09;;;14.95;74.75
46392;BME280;32098;49.448;7.904;2023-05-23T04:23:49;98172.78;;;14.95;74.76
46392;BME280;32098;49.448;7.904;2023-05-23T04:26:16;98169.06;;;15.01;74.72
46392;BME280;32098;49.448;7.904;2023-05-23T04:28:50;98165.84;;;15.04;74.70
46392;BME280;32098;49.448;7.904;2023-05-23T04:31:20;98177.44;;;15.10;74.75
46392;BME280;32098;49.448;7.904;2023-05-23T04:33:47;98158.28;;;14.96;74.25
46392;BME280;32098;49.448;7.904;2023-05-23T04:36:16;98180.19;;;15.20;74.13
46392;BME280;32098;49.448;7.904;2023-05-23T04:38:47;98178.53;;;15.14;74.55
46392;BME280;32098;49.448;7.904;2023-05-23T04:41:14;98171.59;;;15.18;74.55
46392;BME280;32098;49.448;7.904;2023-05-23T04:43:41;98175.09;;;15.18;74.32
46392;BME280;32098;49.448;7.904;2023-05-23T04:46:19;98181.22;;;15.14;73.95
46392;BME280;32098;49.448;7.904;2023-05-23T04:49:08;98194.44;;;15.15;73.78
46392;BME280;32098;49.448;7.904;2023-05-23T04:51:35;98194.94;;;15.12;73.47
46392;BME280;32098;49.448;7.904;2023-05-23T04:54:11;98193.88;;;15.08;73.26
46392;BME280;32098;49.448;7.904;2023-05-23T04:56:38;98195.41;;;14.99;73.73
46392;BME280;32098;49.448;7.904;2023-05-23T04:59:05;98205.13;;;15.05;74.09
46392;BME280;32098;49.448;7.904;2023-05-23T05:01:34;98210.44;;;14.95;74.16
46392;BME280;32098;49.448;7.904;2023-05-23T05:04:00;98210.50;;;15.05;73.87
46392;BME280;32098;49.448;7.904;2023-05-23T05:06:27;98209.44;;;15.06;73.19
46392;BME280;32098;49.448;7.904;2023-05-23T05:08:54;98212.44;;;15.15;72.85
46392;BME280;32098;49.448;7.904;2023-05-23T05:11:21;98213.41;;;14.93;72.81
46392;BME280;32098;49.448;7.904;2023-05-23T05:13:47;98214.81;;;15.01;73.01
46392;BME280;32098;49.448;7.904;2023-05-23T05:16:14;98209.41;;;15.01;72.71
46392;BME280;32098;49.448;7.904;2023-05-23T05:18:40;98216.38;;;14.97;72.41
46392;BME280;32098;49.448;7.904;2023-05-23T05:21:07;98224.44;;;14.97;72.38
46392;BME280;32098;49.448;7.904;2023-05-23T05:23:35;98229.56;;;14.99;73.05
46392;BME280;32098;49.448;7.904;2023-05-23T05:26:03;98227.75;;;15.09;72.82
46392;BME280;32098;49.448;7.904;2023-05-23T05:28:30;98225.28;;;15.03;72.16
46392;BME280;32098;49.448;7.904;2023-05-23T05:30:57;98230.19;;;15.11;72.05
46392;BME280;32098;49.448;7.904;2023-05-23T05:33:25;98228.75;;;14.98;71.37
46392;BME280;32098;49.448;7.904;2023-05-23T05:36:05;98224.28;;;14.77;72.26
46392;BME280;32098;49.448;7.904;2023-05-23T05:38:32;98205.59;;;14.39;72.55
46392;BME280;32098;49.448;7.904;2023-05-23T05:40:59;98235.94;;;14.56;72.45
46392;BME280;32098;49.448;7.904;2023-05-23T05:43:30;98235.25;;;14.70;72.57
46392;BME280;32098;49.448;7.904;2023-05-23T05:45:57;98241.81;;;14.53;72.92
46392;BME280;32098;49.448;7.904;2023-05-23T05:48:23;98237.44;;;14.52;72.84
46392;BME280;32098;49.448;7.904;2023-05-23T05:50:52;98232.91;;;14.52;71.96
46392;BME280;32098;49.448;7.904;2023-05-23T05:53:18;98251.19;;;14.28;72.88
46392;BME280;32098;49.448;7.904;2023-05-23T05:55:45;98249.31;;;14.29;73.46
46392;BME280;32098;49.448;7.904;2023-05-23T05:58:11;98257.97;;;14.36;73.11
46392;BME280;32098;49.448;7.904;2023-05-23T06:00:51;98206.66;;;13.84;71.98
46392;BME280;32098;49.448;7.904;2023-05-23T06:03:19;98224.63;;;14.05;72.28
46392;BME280;32098;49.448;7.904;2023-05-23T06:05:51;98258.44;;;14.28;72.47
46392;BME280;32098;49.448;7.904;2023-05-23T06:08:18;98264.47;;;14.40;72.17
46392;BME280;32098;49.448;7.904;2023-05-23T06:10:44;98265.25;;;14.36;72.57
46392;BME280;32098;49.448;7.904;2023-05-23T06:13:11;98253.72;;;14.40;73.17
46392;BME280;32098;49.448;7.904;2023-05-23T06:15:41;98258.78;;;14.58;72.48
46392;BME280;32098;49.448;7.904;2023-05-23T06:18:07;98260.81;;;14.73;71.56
46392;BME280;32098;49.448;7.904;2023-05-23T06:20:35;98262.94;;;14.71;70.57
46392;BME280;32098;49.448;7.904;2023-05-23T06:23:05;98260.50;;;14.69;70.74
46392;BME280;32098;49.448;7.904;2023-05-23T06:25:31;98273.91;;;14.43;70.92
46392;BME280;32098;49.448;7.904;2023-05-23T06:27:58;98274.69;;;13.95;71.25
46392;BME280;32098;49.448;7.904;2023-05-23T06:30:25;98277.84;;;14.08;72.09
46392;BME280;32098;49.448;7.904;2023-05-23T06:32:51;98270.28;;;14.05;71.47
46392;BME280;32098;49.448;7.904;2023-05-23T06:35:18;98282.38;;;13.86;71.21
46392;BME280;32098;49.448;7.904;2023-05-23T06:37:44;98288.56;;;14.08;71.88
46392;BME280;32098;49.448;7.904;2023-05-23T06:40:11;98284.63;;;13.94;70.77
46392;BME280;32098;49.448;7.904;2023-05-23T06:42:40;98296.44;;;13.55;71.38
46392;BME280;32098;49.448;7.904;2023-05-23T06:45:33;98298.38;;;13.59;71.39
46392;BME280;32098;49.448;7.904;2023-05-23T06:48:01;98300.63;;;13.51;71.61
46392;BME280;32098;49.448;7.904;2023-05-23T06:50:29;98303.94;;;13.53;71.28
46392;BME280;32098;49.448;7.904;2023-05-23T06:52:56;98307.47;;;13.75;71.41
46392;BME280;32098;49.448;7.904;2023-05-23T06:55:23;98310.09;;;13.70;70.79
46392;BME280;32098;49.448;7.904;2023-05-23T06:57:49;98312.13;;;13.63;71.13
46392;BME280;32098;49.448;7.904;2023-05-23T07:00:19;98314.06;;;13.67;70.68
46392;BME280;32098;49.448;7.904;2023-05-23T07:03:15;98289.44;;;13.54;70.42
46392;BME280;32098;49.448;7.904;2023-05-23T07:05:42;98323.88;;;13.79;70.72
46392;BME280;32098;49.448;7.904;2023-05-23T07:08:10;98327.94;;;13.81;70.22
46392;BME280;32098;49.448;7.904;2023-05-23T07:10:39;98328.59;;;13.88;69.41
46392;BME280;32098;49.448;7.904;2023-05-23T07:13:31;98324.19;;;13.82;68.85
46392;BME280;32098;49.448;7.904;2023-05-23T07:15:58;98326.53;;;14.17;69.17
46392;BME280;32098;49.448;7.904;2023-05-23T07:18:25;98336.34;;;14.28;68.71
46392;BME280;32098;49.448;7.904;2023-05-23T07:20:52;98327.59;;;14.38;67.93
46392;BME280;32098;49.448;7.904;2023-05-23T07:23:22;98303.97;;;14.40;67.17
46392;BME280;32098;49.448;7.904;2023-05-23T07:25:52;98336.47;;;14.60;66.64
46392;BME280;32098;49.448;7.904;2023-05-23T07:28:37;98330.72;;;14.73;66.75
46392;BME280;32098;49.448;7.904;2023-05-23T07:31:04;98332.91;;;14.54;65.63
46392;BME280;32098;49.448;7.904;2023-05-23T07:33:30;98342.28;;;14.30;66.40
46392;BME280;32098;49.448;7.904;2023-05-23T07:36:02;98341.66;;;14.45;66.43
46392;BME280;32098;49.448;7.904;2023-05-23T07:38:29;98343.50;;;14.44;66.32
46392;BME280;32098;49.448;7.904;2023-05-23T07:40:55;98344.97;;;14.30;65.93
46392;BME280;32098;49.448;7.904;2023-05-23T07:43:36;98343.06;;;13.87;66.86
46392;BME280;32098;49.448;7.904;2023-05-23T07:46:03;98346.09;;;14.12;67.29
46392;BME280;32098;49.448;7.904;2023-05-23T07:48:30;98348.09;;;14.00;67.65
46392;BME280;32098;49.448;7.904;2023-05-23T07:50:57;98339.91;;;14.12;67.42
46392;BME280;32098;49.448;7.904;2023-05-23T07:53:24;98354.16;;;13.74;68.36
46392;BME280;32098;49.448;7.904;2023-05-23T07:55:51;98347.97;;;13.74;68.11
46392;BME280;32098;49.448;7.904;2023-05-23T07:58:19;98347.06;;;14.06;67.54
46392;BME280;32098;49.448;7.904;2023-05-23T08:00:47;98345.66;;;14.20;67.73
46392;BME280;32098;49.448;7.904;2023-05-23T08:03:37;98354.63;;;13.88;67.30
46392;BME280;32098;49.448;7.904;2023-05-23T08:06:09;98357.56;;;13.70;68.46
46392;BME280;32098;49.448;7.904;2023-05-23T08:08:36;98355.44;;;13.88;68.11
46392;BME280;32098;49.448;7.904;2023-05-23T08:11:05;98352.78;;;14.10;67.80
46392;BME280;32098;49.448;7.904;2023-05-23T08:13:38;98359.44;;;13.86;67.94
46392;BME280;32098;49.448;7.904;2023-05-23T08:16:23;98350.63;;;14.12;68.11
46392;BME280;32098;49.448;7.904;2023-05-23T08:18:50;98350.91;;;14.10;68.05
46392;BME280;32098;49.448;7.904;2023-05-23T08:21:17;98350.91;;;14.32;68.06
46392;BME280;32098;49.448;7.904;2023-05-23T08:23:43;98345.09;;;14.18;67.07
46392;BME280;32098;49.448;7.904;2023-05-23T08:26:10;98365.31;;;14.04;67.01
46392;BME280;32098;49.448;7.904;2023-05-23T08:28:37;98366.59;;;14.18;66.72
46392;BME280;32098;49.448;7.904;2023-05-23T08:31:03;98359.06;;;13.99;67.74
46392;BME280;32098;49.448;7.904;2023-05-23T08:33:30;98346.66;;;14.14;68.21
46392;BME280;32098;49.448;7.904;2023-05-23T08:35:57;98354.41;;;14.33;66.92
46392;BME280;32098;49.448;7.904;2023-05-23T08:38:24;98358.69;;;14.33;66.31
46392;BME280;32098;49.448;7.904;2023-05-23T08:41:21;98359.22;;;14.30;67.26
46392;BME280;32098;49.448;7.904;2023-05-23T08:43:52;98362.59;;;14.43;67.02
46392;BME280;32098;49.448;7.904;2023-05-23T08:46:25;98353.38;;;14.39;67.13
46392;BME280;32098;49.448;7.904;2023-05-23T08:48:54;98355.84;;;14.40;66.67
46392;BME280;32098;49.448;7.904;2023-05-23T08:51:25;98348.50;;;14.79;66.89
46392;BME280;32098;49.448;7.904;2023-05-23T08:53:53;98354.47;;;15.13;66.98
46392;BME280;32098;49.448;7.904;2023-05-23T08:56:23;98357.97;;;15.45;65.29
46392;BME280;32098;49.448;7.904;2023-05-23T08:58:51;98349.69;;;15.51;64.27
46392;BME280;32098;49.448;7.904;2023-05-23T09:01:20;98360.63;;;15.40;63.80
46392;BME280;32098;49.448;7.904;2023-05-23T09:03:51;98359.41;;;15.52;64.74
46392;BME280;32098;49.448;7.904;2023-05-23T09:06:23;98350.34;;;15.64;63.57
46392;BME280;32098;49.448;7.904;2023-05-23T09:08:50;98355.81;;;15.74;62.43
46392;BME280;32098;49.448;7.904;2023-05-23T09:11:19;98354.25;;;15.83;62.16
46392;BME280;32098;49.448;7.904;2023-05-23T09:13:48;98369.34;;;15.84;62.53
46392;BME280;32098;49.448;7.904;2023-05-23T09:16:17;98363.91;;;15.79;61.51
46392;BME280;32098;49.448;7.904;2023-05-23T09:18:54;98355.22;;;16.13;62.67
46392;BME280;32098;49.448;7.904;2023-05-23T09:21:23;98361.84;;;16.43;61.07
46392;BME280;32098;49.448;7.904;2023-05-23T09:23:57;98361.84;;;16.43;60.39
46392;BME280;32098;49.448;7.904;2023-05-23T09:26:24;98358.66;;;16.04;60.93
46392;BME280;32098;49.448;7.904;2023-05-23T09:28:56;98354.84;;;16.47;61.44
46392;BME280;32098;49.448;7.904;2023-05-23T09:31:27;98360.88;;;16.69;62.10
46392;BME280;32098;49.448;7.904;2023-05-23T09:33:57;98364.09;;;16.66;59.85
46392;BME280;32098;49.448;7.904;2023-05-23T09:36:30;98348.47;;;16.68;60.97
46392;BME280;32098;49.448;7.904;2023-05-23T09:39:03;98369.72;;;16.64;60.26
46392;BME280;32098;49.448;7.904;2023-05-23T09:41:33;98372.22;;;16.19;61.06
46392;BME280;32098;49.448;7.904;2023-05-23T09:44:06;98374.59;;;16.10;62.03
46392;BME280;32098;49.448;7.904;2023-05-23T09:46:35;98360.63;;;16.13;62.05
46392;BME280;32098;49.448;7.904;2023-05-23T09:49:13;98374.91;;;16.19;61.58
46392;BME280;32098;49.448;7.904;2023-05-23T09:51:41;98381.56;;;16.06;62.03
46392;BME280;32098;49.448;7.904;2023-05-23T09:54:07;98371.03;;;16.00;62.52
46392;BME280;32098;49.448;7.904;2023-05-23T09:56:36;98379.06;;;15.90;62.60
46392;BME280;32098;49.448;7.904;2023-05-23T09:59:04;98377.47;;;15.57;63.61
46392;BME280;32098;49.448;7.904;2023-05-23T10:01:34;98378.81;;;15.91;64.37
46392;BME280;32098;49.448;7.904;2023-05-23T10:04:02;98376.88;;;15.87;63.11
46392;BME280;32098;49.448;7.904;2023-05-23T10:07:12;98376.69;;;15.98;62.24
46392;BME280;32098;49.448;7.904;2023-05-23T10:09:52;98382.28;;;15.92;62.56
46392;BME280;32098;49.448;7.904;2023-05-23T10:15:03;98394.38;;;15.21;63.75
46392;BME280;32098;49.448;7.904;2023-05-23T10:18:06;98303.72;;;14.19;65.12
46392;BME280;32098;49.448;7.904;2023-05-23T10:20:37;98386.00;;;15.17;66.44
46392;BME280;32098;49.448;7.904;2023-05-23T10:23:04;98384.81;;;15.35;64.75
46392;BME280;32098;49.448;7.904;2023-05-23T10:25:32;98391.44;;;15.54;64.19
46392;BME280;32098;49.448;7.904;2023-05-23T10:28:01;98394.19;;;15.59;63.57
46392;BME280;32098;49.448;7.904;2023-05-23T10:30:30;98388.72;;;15.22;64.11
46392;BME280;32098;49.448;7.904;2023-05-23T10:32:57;98370.00;;;14.79;64.67
46392;BME280;32098;49.448;7.904;2023-05-23T10:38:10;98395.03;;;15.33;65.16
46392;BME280;32098;49.448;7.904;2023-05-23T10:40:53;98400.50;;;14.89;63.48
46392;BME280;32098;49.448;7.904;2023-05-23T10:45:55;98402.19;;;15.22;64.56
46392;BME280;32098;49.448;7.904;2023-05-23T10:48:31;98396.19;;;15.15;64.95
46392;BME280;32098;49.448;7.904;2023-05-23T10:51:08;98397.91;;;15.53;65.51
46392;BME280;32098;49.448;7.904;2023-05-23T10:53:42;98402.59;;;15.68;64.64
46392;BME280;32098;49.448;7.904;2023-05-23T10:56:10;98403.38;;;15.36;64.20
46392;BME280;32098;49.448;7.904;2023-05-23T10:58:45;98400.72;;;15.68;63.95
46392;BME280;32098;49.448;7.904;2023-05-23T11:01:13;98404.25;;;15.69;63.21
46392;BME280;32098;49.448;7.904;2023-05-23T11:09:02;98404.16;;;15.59;64.81
46392;BME280;32098;49.448;7.904;2023-05-23T11:11:52;98405.56;;;15.66;63.71
46392;BME280;32098;49.448;7.904;2023-05-23T11:19:39;98417.25;;;16.24;63.01
46392;BME280;32098;49.448;7.904;2023-05-23T11:22:09;98408.75;;;16.47;63.15
46392;BME280;32098;49.448;7.904;2023-05-23T11:24:52;98414.56;;;16.80;61.28
46392;BME280;32098;49.448;7.904;2023-05-23T11:27:34;98417.81;;;16.82;60.79
46392;BME280;32098;49.448;7.904;2023-05-23T11:30:06;98400.53;;;16.78;61.87
46392;BME280;32098;49.448;7.904;2023-05-23T11:32:34;98412.47;;;16.98;58.72
46392;BME280;32098;49.448;7.904;2023-05-23T11:35:02;98414.66;;;17.06;59.77
46392;BME280;32098;49.448;7.904;2023-05-23T11:37:30;98411.16;;;17.20;59.52
46392;BME280;32098;49.448;7.904;2023-05-23T11:39:57;98407.88;;;16.98;59.19
46392;BME280;32098;49.448;7.904;2023-05-23T11:42:24;98401.94;;;16.91;59.87
46392;BME280;32098;49.448;7.904;2023-05-23T11:44:51;98410.25;;;16.84;59.15
46392;BME280;32098;49.448;7.904;2023-05-23T11:47:18;98407.53;;;16.79;60.38
46392;BME280;32098;49.448;7.904;2023-05-23T11:49:45;98406.44;;;16.70;60.55
46392;BME280;32098;49.448;7.904;2023-05-23T11:52:12;98410.69;;;16.09;60.76
46392;BME280;32098;49.448;7.904;2023-05-23T11:54:40;98412.03;;;16.07;61.48
46392;BME280;32098;49.448;7.904;2023-05-23T11:57:08;98406.00;;;15.90;62.50
46392;BME280;32098;49.448;7.904;2023-05-23T11:59:35;98415.44;;;15.55;63.06
46392;BME280;32098;49.448;7.904;2023-05-23T12:02:05;98401.78;;;15.67;63.75
46392;BME280;32098;49.448;7.904;2023-05-23T12:04:33;98419.28;;;15.65;63.43
46392;BME280;32098;49.448;7.904;2023-05-23T12:07:03;98404.63;;;15.87;62.92
46392;BME280;32098;49.448;7.904;2023-05-23T12:09:30;98399.41;;;16.12;63.47
46392;BME280;32098;49.448;7.904;2023-05-23T12:11:56;98401.22;;;16.44;62.74
46392;BME280;32098;49.448;7.904;2023-05-23T12:14:27;98397.72;;;16.43;61.43
46392;BME280;32098;49.448;7.904;2023-05-23T12:16:54;98395.38;;;16.15;62.74
46392;BME280;32098;49.448;7.904;2023-05-23T12:19:20;98395.84;;;16.07;62.72
46392;BME280;32098;49.448;7.904;2023-05-23T12:21:48;98405.53;;;16.03;62.07
46392;BME280;32098;49.448;7.904;2023-05-23T12:24:16;98396.03;;;15.90;62.70
46392;BME280;32098;49.448;7.904;2023-05-23T12:26:54;98396.63;;;15.97;62.11
46392;BME280;32098;49.448;7.904;2023-05-23T12:29:31;98388.31;;;15.35;62.85
46392;BME280;32098;49.448;7.904;2023-05-23T12:32:02;98395.13;;;15.16;63.84
46392;BME280;32098;49.448;7.904;2023-05-23T12:34:28;98400.28;;;15.49;64.15
46392;BME280;32098;49.448;7.904;2023-05-23T12:37:02;98399.78;;;15.52;64.71
46392;BME280;32098;49.448;7.904;2023-05-23T12:39:45;98405.41;;;15.83;64.13
46392;BME280;32098;49.448;7.904;2023-05-23T12:42:11;98386.38;;;15.58;64.35
46392;BME280;32098;49.448;7.904;2023-05-23T12:44:40;98389.28;;;15.88;63.89
46392;BME280;32098;49.448;7.904;2023-05-23T12:47:07;98421.78;;;16.13;63.23
46392;BME280;32098;49.448;7.904;2023-05-23T12:49:33;98390.13;;;16.40;63.01
46392;BME280;32098;49.448;7.904;2023-05-23T12:52:00;98391.31;;;16.64;62.85
46392;BME280;32098;49.448;7.904;2023-05-23T12:54:26;98401.06;;;16.75;63.19
46392;BME280;32098;49.448;7.904;2023-05-23T12:56:53;98392.41;;;16.63;60.58
46392;BME280;32098;49.448;7.904;2023-05-23T12:59:19;98388.56;;;16.49;62.20
46392;BME280;32098;49.448;7.904;2023-05-23T13:01:46;98395.59;;;16.50;61.60
46392;BME280;32098;49.448;7.904;2023-05-23T13:04:12;98394.75;;;16.45;61.29
46392;BME280;32098;49.448;7.904;2023-05-23T13:06:39;98386.50;;;16.81;61.21
46392;BME280;32098;49.448;7.904;2023-05-23T13:09:05;98396.00;;;17.04;61.06
46392;BME280;32098;49.448;7.904;2023-05-23T13:11:32;98383.34;;;17.15;59.66
46392;BME280;32098;49.448;7.904;2023-05-23T13:13:59;98397.78;;;16.58;58.99
46392;BME280;32098;49.448;7.904;2023-05-23T13:16:25;98400.25;;;16.75;61.11
46392;BME280;32098;49.448;7.904;2023-05-23T13:18:52;98401.34;;;16.74;61.05
46392;BME280;32098;49.448;7.904;2023-05-23T13:21:19;98396.78;;;16.84;59.50
46392;BME280;32098;49.448;7.904;2023-05-23T13:23:45;98394.13;;;16.33;60.98
46392;BME280;32098;49.448;7.904;2023-05-23T13:26:12;98395.06;;;16.53;60.92
46392;BME280;32098;49.448;7.904;2023-05-23T13:28:40;98364.00;;;15.99;61.30
46392;BME280;32098;49.448;7.904;2023-05-23T13:31:06;98407.63;;;15.91;62.77